PAGK

Details ICAO PAGK (GKN)
Name GULKANA
Region USA (Alaska)
Timezone America/Anchorage (UTC-9.0)
Plans Departing 14
Arriving 4
Stats Elevation 1,580 ft / 482 m (AMSL)
Location 62.154953° -145.454333°
Runways 1
Magnetic Variation 17.829° E
Sunrise 2017-12-13 19:01:32 UTC / 2017-12-13 10:01:32 Local
Sunset 2017-12-14 00:13:43 UTC / 2017-12-13 15:13:43 Local
Advertisement - Login to hide

Runways

ID Width Length Bearing (true) Bearing (mag) Surface Threshold Offset Overrun Length
14 100 ft / 30 m 4,989 ft / 1,521 m 171.05° 153.22° Asphalt 0 ft / 0 m 0 ft / 0 m
32 100 ft / 30 m 4,989 ft / 1,521 m 351.05° 333.22° Asphalt 0 ft / 0 m 0 ft / 0 m

Map

Weather


0- 5 10 15 20 25 30 35+ Temperature / ° C

Clouds and Precipitation
Forecast for 2017-12-14 06:00 UTC. Updated an hour ago

Ground ~20,000 ft ~40,000 ft Winds

METAR

PAGK 140237Z AUTO 16005KT 3SM BR CLR M02/M02 A2967 RMK AO2 T10221022 TSNO

TAF

PAGK 132331Z 1400/1424 16008KT P6SM FEW070 FM140600 17007KT P6SM VCSH SCT030 OVC060 FM141300 00000KT 4SM -SHSN BR OVC025

Frequencies

Recorded 134.85 MHz ASOS
Unicom 122.90 MHz CTAF
Warning: Do not use this data for real-world aviation or navigation. No guarantee of current accuracy is given.